Time;durP1;ratioP1;P1;durP2;ratioP2;P2;SDS_P1;SDS_P2;PMS_P1;PMS_P2;Temp;Humidity;BMP_temperature;BMP_pressure;BME280_temperature;BME280_humidity;BME280_pressure;Samples;Min_cycle;Max_cycle;Signal;HPM_P1;HPM_P2
2022/10/13 00:00:23;;;;;;;0.00;0.00;;;;;;;10.93;68.66;101163.78;7363741;19;20018;-61
2022/10/13 00:02:49;;;;;;;0.00;0.00;;;;;;;10.91;68.54;101160.34;7359964;19;20416;-61
2022/10/13 00:05:15;;;;;;;0.00;0.00;;;;;;;10.80;68.34;101150.06;7362853;19;20711;-61
2022/10/13 00:07:40;;;;;;;0.00;0.00;;;;;;;10.82;68.49;101152.66;7363837;19;20117;-61
2022/10/13 00:10:06;;;;;;;0.00;0.00;;;;;;;10.75;68.43;101135.38;7363177;19;20025;-61
2022/10/13 00:12:36;;;;;;;0.05;0.05;;;;;;;10.80;68.36;101152.69;7364269;19;20013;-61
2022/10/13 00:15:01;;;;;;;0.00;0.00;;;;;;;10.77;68.71;101157.09;7360941;19;20018;-61
2022/10/13 00:17:27;;;;;;;0.00;0.00;;;;;;;10.65;68.47;101139.88;7364602;19;20130;-61
2022/10/13 00:19:52;;;;;;;0.00;0.00;;;;;;;10.50;68.63;101119.22;7363344;19;20037;-61
2022/10/13 00:22:18;;;;;;;0.00;0.00;;;;;;;10.73;68.75;101164.09;7365508;19;20048;-61
2022/10/13 00:24:43;;;;;;;0.00;0.00;;;;;;;10.72;68.39;101161.53;7361495;19;20014;-61
2022/10/13 00:27:08;;;;;;;0.00;0.00;;;;;;;10.68;68.65;101154.63;7362505;19;20010;-61
2022/10/13 00:29:34;;;;;;;0.00;0.00;;;;;;;10.48;68.88;101127.06;7363214;19;20022;-61
2022/10/13 00:31:59;;;;;;;0.00;0.00;;;;;;;10.58;69.17;101144.31;7364129;19;20007;-61
2022/10/13 00:34:25;;;;;;;0.00;0.00;;;;;;;10.50;69.08;101137.50;7361427;19;20491;-61
2022/10/13 00:36:50;;;;;;;0.00;0.00;;;;;;;10.58;69.08;101159.97;7363819;19;20003;-61
2022/10/13 00:39:15;;;;;;;0.00;0.00;;;;;;;10.50;68.79;101146.19;7364013;19;20014;-61
2022/10/13 00:41:41;;;;;;;0.00;0.00;;;;;;;10.50;68.68;101146.19;7359422;19;20007;-61
2022/10/13 00:44:45;;;;;;;0.00;0.00;;;;;;;10.48;68.27;101142.72;7360975;19;20017;-61
2022/10/13 00:47:11;;;;;;;0.00;0.00;;;;;;;10.47;68.69;101146.22;7260625;19;2004137;-61
2022/10/13 00:49:36;;;;;;;0.00;0.00;;;;;;;10.44;68.53;101151.50;7363196;19;20674;-61
2022/10/13 00:52:02;;;;;;;0.00;0.00;;;;;;;10.41;68.52;101138.50;7361149;19;20020;-61
2022/10/13 00:54:28;;;;;;;0.00;0.00;;;;;;;10.35;68.41;101125.53;7361339;19;20025;-61
2022/10/13 00:56:54;;;;;;;0.00;0.00;;;;;;;10.32;68.16;101125.56;7362244;19;20014;-61
2022/10/13 00:59:27;;;;;;;0.00;0.00;;;;;;;10.19;68.27;101113.53;7365559;19;20388;-63
2022/10/13 01:01:54;;;;;;;0.00;0.00;;;;;;;10.31;68.69;101140.38;7364365;19;20010;-61
2022/10/13 01:04:23;;;;;;;0.00;0.00;;;;;;;10.27;68.31;101132.59;7363500;19;20023;-61
2022/10/13 01:06:48;;;;;;;0.00;0.00;;;;;;;10.27;68.68;101143.03;7364898;19;20002;-61
2022/10/13 01:09:17;;;;;;;0.00;0.00;;;;;;;10.21;68.62;101137.88;7362873;19;20014;-61
2022/10/13 01:11:51;;;;;;;0.08;0.08;;;;;;;10.22;68.37;101144.81;7362888;19;20014;-61
2022/10/13 01:14:23;;;;;;;0.00;0.00;;;;;;;10.14;68.22;101142.34;7363211;19;20100;-61
2022/10/13 01:17:00;;;;;;;0.00;0.00;;;;;;;10.18;68.78;101149.22;7363809;19;20048;-61
2022/10/13 01:19:43;;;;;;;0.00;0.00;;;;;;;10.13;68.75;101149.28;7360583;19;20557;-61
2022/10/13 01:22:27;;;;;;;0.00;0.00;;;;;;;10.11;68.42;101144.97;7363368;19;20021;-61
2022/10/13 01:25:13;;;;;;;0.00;0.00;;;;;;;10.07;68.94;101154.59;7360771;19;21521;-61
2022/10/13 01:27:53;;;;;;;0.00;0.00;;;;;;;9.98;68.85;101140.78;7361784;19;20018;-61
2022/10/13 01:30:21;;;;;;;0.00;0.00;;;;;;;10.02;68.92;101148.56;7354322;19;20037;-61
2022/10/13 01:33:08;;;;;;;0.00;0.00;;;;;;;9.97;69.03;101144.28;7363506;19;20394;-61
2022/10/13 01:36:11;;;;;;;0.00;0.00;;;;;;;9.97;68.29;101139.94;7364438;19;20480;-61
2022/10/13 01:38:50;;;;;;;0.00;0.00;;;;;;;9.88;68.82;101132.22;7259994;19;2004253;-61
2022/10/13 01:41:32;;;;;;;0.00;0.00;;;;;;;9.80;68.76;101121.03;7359461;19;20018;-61
2022/10/13 01:44:15;;;;;;;0.00;0.00;;;;;;;9.89;68.45;101141.81;7362219;19;20049;-61
2022/10/13 01:46:42;;;;;;;0.00;0.00;;;;;;;9.75;68.46;101126.31;7364447;19;20811;-60
2022/10/13 01:49:15;;;;;;;0.00;0.00;;;;;;;9.66;68.04;101118.59;7357687;19;20023;-61
2022/10/13 01:51:42;;;;;;;0.00;0.00;;;;;;;9.78;68.33;101143.66;7360919;19;20010;-61
2022/10/13 01:54:08;;;;;;;;;;;;;;;9.77;67.54;101145.41;7362071;19;20015;-61
2022/10/13 01:56:33;;;;;;;0.10;0.10;;;;;;;9.59;68.37;101128.25;7356961;19;19929;-61
2022/10/13 01:59:03;;;;;;;0.00;0.00;;;;;;;9.65;68.36;101142.09;7353006;19;20395;-61
2022/10/13 02:01:52;;;;;;;0.00;0.00;;;;;;;9.66;69.05;101143.81;7359820;19;20014;-61
2022/10/13 02:04:32;;;;;;;0.00;0.00;;;;;;;9.63;69.10;101149.94;7361143;19;20017;-61
2022/10/13 02:07:21;;;;;;;0.00;0.00;;;;;;;9.26;68.62;101081.72;7361443;19;20022;-61
2022/10/13 02:09:49;;;;;;;0.00;0.00;;;;;;;9.56;69.35;101133.50;7363357;19;20014;-61
2022/10/13 02:12:27;;;;;;;0.00;0.00;;;;;;;9.51;69.10;101124.84;7362177;19;20121;-61
2022/10/13 02:14:56;;;;;;;0.00;0.00;;;;;;;9.48;69.57;101122.31;7354947;19;20011;-61
2022/10/13 02:17:21;;;;;;;0.00;0.00;;;;;;;9.46;69.76;101113.63;7360317;19;20006;-61
2022/10/13 02:19:47;;;;;;;0.00;0.00;;;;;;;9.41;69.88;101107.59;7361989;19;20006;-61
2022/10/13 02:22:15;;;;;;;0.00;0.00;;;;;;;9.47;69.96;101112.72;7359793;19;20045;-61
2022/10/13 02:24:40;;;;;;;0.00;0.00;;;;;;;9.35;69.92;101097.25;7361478;19;20010;-61
2022/10/13 02:27:07;;;;;;;0.00;0.00;;;;;;;9.43;69.67;101113.69;7361551;19;20767;-61
2022/10/13 02:29:33;;;;;;;0.00;0.00;;;;;;;9.26;69.55;101087.78;7359239;19;20761;-61
2022/10/13 02:31:59;;;;;;;0.00;0.00;;;;;;;9.35;69.47;101103.31;7360111;19;20082;-61
2022/10/13 02:34:24;;;;;;;0.00;0.00;;;;;;;9.38;69.07;101112.88;7361202;19;20014;-61
2022/10/13 02:36:49;;;;;;;0.00;0.00;;;;;;;9.00;69.32;101041.16;7359851;19;20010;-61
2022/10/13 02:39:16;;;;;;;0.00;0.00;;;;;;;9.03;69.26;101043.75;7356862;19;20030;-59
2022/10/13 02:41:42;;;;;;;0.00;0.00;;;;;;;9.32;69.47;101094.66;7360342;19;20009;-61
2022/10/13 02:44:07;;;;;;;0.00;0.00;;;;;;;9.24;69.39;101088.69;7361378;19;20006;-61
2022/10/13 02:46:33;;;;;;;0.00;0.00;;;;;;;9.26;69.13;101094.75;7358624;19;20010;-61
2022/10/13 02:48:59;;;;;;;0.00;0.00;;;;;;;9.12;69.52;101075.78;7357913;19;20103;-61
2022/10/13 02:51:24;;;;;;;0.00;0.00;;;;;;;9.23;69.64;101102.59;7359862;19;20010;-61
2022/10/13 02:53:49;;;;;;;0.00;0.00;;;;;;;9.19;69.29;101090.47;7362251;19;20014;-61
2022/10/13 02:56:15;;;;;;;0.00;0.00;;;;;;;9.15;69.79;101078.38;7359817;19;20555;-61
2022/10/13 02:58:40;;;;;;;0.00;0.00;;;;;;;9.13;69.87;101083.59;7359805;19;20018;-61
2022/10/13 03:01:08;;;;;;;0.00;0.00;;;;;;;9.16;69.92;101086.16;7359921;19;20030;-61
2022/10/13 03:03:33;;;;;;;0.00;0.00;;;;;;;9.09;70.16;101081.91;7357959;19;20026;-60
2022/10/13 03:05:59;;;;;;;0.00;0.00;;;;;;;9.11;70.27;101077.53;7356638;19;20025;-63
2022/10/13 03:08:25;;;;;;;0.00;0.00;;;;;;;9.00;70.50;101067.22;7361898;19;20026;-63
2022/10/13 03:10:50;;;;;;;0.00;0.00;;;;;;;9.07;70.04;101076.72;7359356;19;20017;-63
2022/10/13 03:13:16;;;;;;;0.00;0.00;;;;;;;8.91;70.04;101049.06;7362732;19;20081;-63
2022/10/13 03:15:41;;;;;;;0.00;0.00;;;;;;;9.03;70.10;101062.00;7361534;19;20018;-64
2022/10/13 03:18:06;;;;;;;0.03;0.03;;;;;;;8.83;69.62;101035.28;7359588;19;20025;-64
2022/10/13 03:20:32;;;;;;;0.00;0.00;;;;;;;8.97;69.79;101062.06;7354196;19;20447;-63
2022/10/13 03:22:57;;;;;;;0.00;0.00;;;;;;;8.95;70.18;101060.34;7361339;19;20026;-63
2022/10/13 03:25:23;;;;;;;0.00;0.00;;;;;;;8.85;70.21;101054.34;7361400;19;20006;-64
2022/10/13 03:27:48;;;;;;;0.00;0.00;;;;;;;8.77;69.91;101045.78;7358801;19;20042;-63
2022/10/13 03:30:13;;;;;;;0.00;0.00;;;;;;;8.78;70.12;101058.78;7361896;19;20822;-63
2022/10/13 03:32:39;;;;;;;0.00;0.00;;;;;;;8.88;70.25;101075.16;7361221;19;20035;-63
2022/10/13 03:35:05;;;;;;;0.05;0.05;;;;;;;8.67;70.03;101038.91;7358373;19;20013;-63
2022/10/13 03:37:31;;;;;;;0.00;0.00;;;;;;;8.82;70.00;101077.84;7360495;19;20014;-63
2022/10/13 03:39:56;;;;;;;0.00;0.00;;;;;;;8.77;70.17;101069.22;7359970;19;20014;-63
2022/10/13 03:42:22;;;;;;;0.00;0.00;;;;;;;8.73;70.57;101070.97;7358953;19;20011;-63
2022/10/13 03:44:47;;;;;;;0.00;0.00;;;;;;;8.74;70.51;101077.91;7362532;19;20022;-63
2022/10/13 03:47:13;;;;;;;0.00;0.00;;;;;;;8.73;70.30;101090.94;7361021;19;20029;-63
2022/10/13 03:49:38;;;;;;;0.00;0.00;;;;;;;8.62;70.76;101077.13;7362426;19;20015;-63
2022/10/13 03:52:04;;;;;;;0.00;0.00;;;;;;;8.65;70.84;101097.94;7368595;19;20118;-63
2022/10/13 03:54:30;;;;;;;0.00;0.00;;;;;;;8.71;70.76;101108.28;7366928;19;20033;-64
2022/10/13 03:56:55;;;;;;;0.00;0.00;;;;;;;8.55;70.67;101092.81;7365411;19;20021;-63
2022/10/13 03:59:21;;;;;;;0.00;0.00;;;;;;;8.55;70.95;101087.59;7366050;19;21352;-63
2022/10/13 04:01:46;;;;;;;0.00;0.00;;;;;;;8.66;70.63;101102.25;7366821;19;20006;-63
2022/10/13 04:04:12;;;;;;;0.00;0.00;;;;;;;8.62;70.66;101082.31;7368524;19;20026;-63
2022/10/13 04:06:38;;;;;;;0.00;0.00;;;;;;;8.62;70.54;101071.91;7366545;19;20015;-62
2022/10/13 04:09:03;;;;;;;0.00;0.00;;;;;;;8.50;70.66;101037.31;7366508;19;20021;-63
2022/10/13 04:11:29;;;;;;;0.00;0.00;;;;;;;8.55;70.66;101032.06;7365181;19;20006;-63
2022/10/13 04:13:56;;;;;;;0.00;0.00;;;;;;;8.53;70.29;101032.09;7365957;19;20021;-63
2022/10/13 04:16:24;;;;;;;0.00;0.00;;;;;;;8.47;70.34;101016.53;7365610;19;20014;-63
2022/10/13 04:18:56;;;;;;;0.05;0.05;;;;;;;8.42;70.47;101013.13;7368564;19;20744;-63
2022/10/13 04:21:22;;;;;;;0.00;0.00;;;;;;;8.47;70.50;101021.75;7367390;19;20014;-63
2022/10/13 04:23:48;;;;;;;0.00;0.00;;;;;;;8.45;70.42;101020.88;7364268;19;20014;-63
2022/10/13 04:26:17;;;;;;;0.00;0.00;;;;;;;8.47;70.49;101016.53;7367571;19;20602;-63
2022/10/13 04:28:44;;;;;;;0.00;0.00;;;;;;;8.47;70.12;101026.09;7365878;19;20007;-63
2022/10/13 04:31:09;;;;;;;0.10;0.10;;;;;;;8.45;69.96;101013.06;7366683;19;20752;-63
2022/10/13 04:33:35;;;;;;;0.00;0.00;;;;;;;8.39;70.15;101005.31;7365676;19;20021;-63
2022/10/13 04:36:03;;;;;;;0.00;0.00;;;;;;;8.38;69.86;101001.00;7362032;19;20011;-63
2022/10/13 04:38:29;;;;;;;0.00;0.00;;;;;;;8.25;69.91;100983.72;7368195;19;20497;-63
2022/10/13 04:40:54;;;;;;;0.00;0.00;;;;;;;8.28;69.77;100992.38;7365263;19;20026;-63
2022/10/13 04:43:19;;;;;;;0.00;0.00;;;;;;;8.22;70.21;100991.59;7368017;19;20017;-63
2022/10/13 04:45:45;;;;;;;0.00;0.00;;;;;;;8.34;69.90;101022.69;7363203;19;20010;-64
2022/10/13 04:48:10;;;;;;;0.00;0.00;;;;;;;8.33;69.63;101023.56;7366276;19;20609;-63
2022/10/13 04:50:36;;;;;;;0.00;0.00;;;;;;;8.21;69.64;101002.84;7366456;19;20056;-63
2022/10/13 04:53:02;;;;;;;0.00;0.00;;;;;;;8.31;69.93;101030.50;7366592;19;20034;-63
2022/10/13 04:55:27;;;;;;;0.00;0.00;;;;;;;8.07;69.69;100996.03;7364420;19;20026;-63
2022/10/13 04:57:52;;;;;;;0.00;0.00;;;;;;;8.18;69.39;101013.28;7364838;19;20006;-63
2022/10/13 05:00:18;;;;;;;0.00;0.00;;;;;;;7.94;69.51;100978.78;7368492;19;20002;-63
2022/10/13 05:02:43;;;;;;;0.00;0.00;;;;;;;8.22;69.29;101020.19;7340866;19;20692;-63
2022/10/13 05:05:09;;;;;;;0.00;0.00;;;;;;;8.21;69.10;101028.84;7366261;19;20070;-63
2022/10/13 05:07:35;;;;;;;0.00;0.00;;;;;;;8.13;69.10;101009.84;7363004;19;20002;-63
2022/10/13 05:10:00;;;;;;;0.00;0.00;;;;;;;8.08;69.21;101007.28;7363653;19;20025;-63
2022/10/13 05:12:26;;;;;;;0.00;0.00;;;;;;;8.16;69.59;101025.41;7366678;19;20006;-63
2022/10/13 05:14:51;;;;;;;0.00;0.00;;;;;;;7.93;69.19;100990.06;7363678;19;20550;-63
2022/10/13 05:17:16;;;;;;;0.00;0.00;;;;;;;8.03;69.23;101019.47;7364745;19;20003;-64
2022/10/13 05:19:43;;;;;;;0.00;0.00;;;;;;;8.10;69.10;101041.06;7363974;19;20066;-64
2022/10/13 05:22:08;;;;;;;0.00;0.00;;;;;;;8.03;68.92;101024.66;7364668;19;20018;-64
2022/10/13 05:24:37;;;;;;;0.00;0.00;;;;;;;8.01;68.93;101019.47;7363142;19;20022;-63
2022/10/13 05:27:09;;;;;;;0.00;0.00;;;;;;;8.05;69.08;101028.09;7365247;19;20041;-63
2022/10/13 05:29:35;;;;;;;0.00;0.00;;;;;;;8.02;69.10;101017.75;7366998;19;20029;-63
2022/10/13 05:32:01;;;;;;;0.00;0.00;;;;;;;7.90;68.87;101003.06;7365553;19;20019;-63
2022/10/13 05:34:26;;;;;;;0.00;0.00;;;;;;;7.93;69.20;101008.25;7362140;19;20023;-64
2022/10/13 05:36:52;;;;;;;0.00;0.00;;;;;;;7.85;69.00;100989.22;7364981;19;20082;-63
2022/10/13 05:39:17;;;;;;;0.00;0.00;;;;;;;7.86;68.95;100993.59;7365789;19;20110;-63
2022/10/13 05:41:43;;;;;;;0.00;0.00;;;;;;;7.87;69.18;100995.31;7366265;19;20018;-63
2022/10/13 05:44:09;;;;;;;0.00;0.00;;;;;;;7.91;69.16;101007.41;7364455;19;20078;-63
2022/10/13 05:46:35;;;;;;;0.00;0.00;;;;;;;7.56;69.17;100945.25;7365246;19;20023;-63
2022/10/13 05:49:00;;;;;;;0.00;0.00;;;;;;;7.83;68.94;100991.00;7362310;19;20002;-64
2022/10/13 05:51:36;;;;;;;0.00;0.00;;;;;;;7.83;69.09;101003.13;7366878;19;20498;-63
2022/10/13 05:54:11;;;;;;;0.00;0.00;;;;;;;7.85;69.35;101012.63;7363615;19;20015;-63
2022/10/13 05:56:43;;;;;;;0.00;0.00;;;;;;;7.84;69.48;101013.50;7363210;19;20006;-63
2022/10/13 05:59:12;;;;;;;0.00;0.00;;;;;;;7.71;70.26;100991.09;7354683;19;20943;-63
2022/10/13 06:01:41;;;;;;;0.00;0.00;;;;;;;7.74;70.13;100985.84;7363494;19;20021;-62
2022/10/13 06:04:12;;;;;;;0.10;0.10;;;;;;;7.43;69.58;100931.47;7362826;19;20085;-64
2022/10/13 06:06:38;;;;;;;0.00;0.00;;;;;;;7.75;69.83;100971.97;7361291;19;20087;-63
2022/10/13 06:09:04;;;;;;;0.00;0.00;;;;;;;7.66;69.32;100946.06;7362945;19;20018;-64
2022/10/13 06:11:29;;;;;;;0.00;0.00;;;;;;;7.66;70.02;100940.88;7360969;19;20014;-63
2022/10/13 06:13:55;;;;;;;0.00;0.00;;;;;;;7.72;69.99;100962.47;7361963;19;20017;-63
2022/10/13 06:16:20;;;;;;;0.00;0.00;;;;;;;7.67;70.14;100950.38;7361674;19;20122;-63
2022/10/13 06:18:46;;;;;;;0.00;0.00;;;;;;;7.71;69.72;100959.91;7365501;19;20014;-64
2022/10/13 06:21:12;;;;;;;0.00;0.00;;;;;;;7.59;69.86;100933.97;7359650;19;20010;-63
2022/10/13 06:23:37;;;;;;;0.00;0.00;;;;;;;7.67;70.02;100943.44;7361640;19;20014;-63
2022/10/13 06:26:05;;;;;;;0.00;0.00;;;;;;;7.65;69.60;100945.19;7363419;19;20006;-63
2022/10/13 06:28:30;;;;;;;0.00;0.00;;;;;;;7.65;69.59;100944.31;7358655;19;20078;-63
2022/10/13 06:30:56;;;;;;;0.00;0.00;;;;;;;7.61;69.99;100940.03;7362444;19;20065;-63
2022/10/13 06:33:25;;;;;;;0.00;0.00;;;;;;;7.48;69.81;100924.50;7362300;19;20677;-63
2022/10/13 06:35:51;;;;;;;0.00;0.00;;;;;;;7.62;69.76;100949.56;7362012;19;20010;-63
2022/10/13 06:38:17;;;;;;;0.00;0.00;;;;;;;7.48;69.85;100921.91;7361946;19;20007;-64
2022/10/13 06:40:42;;;;;;;0.00;0.00;;;;;;;7.46;69.51;100928.00;7356464;19;20033;-63
2022/10/13 06:43:08;;;;;;;0.00;0.00;;;;;;;7.49;69.92;100931.41;7358986;19;20011;-63
2022/10/13 06:45:34;;;;;;;0.00;0.00;;;;;;;7.48;70.04;100919.31;7358322;19;20011;-63
2022/10/13 06:47:59;;;;;;;0.00;0.00;;;;;;;7.56;69.81;100941.81;7361981;19;20016;-63
2022/10/13 06:50:25;;;;;;;0.00;0.00;;;;;;;7.59;69.96;100966.00;7361119;19;21277;-63
2022/10/13 06:52:51;;;;;;;0.00;0.00;;;;;;;7.39;69.82;100953.13;7359555;19;20030;-63
2022/10/13 06:55:17;;;;;;;0.00;0.00;;;;;;;7.58;69.90;100989.41;7360181;19;20029;-63
2022/10/13 06:57:42;;;;;;;0.00;0.00;;;;;;;7.53;69.95;100979.91;7360348;19;20077;-63
2022/10/13 07:00:08;;;;;;;0.00;0.00;;;;;;;7.53;69.93;100977.31;7361140;19;20014;-64
2022/10/13 07:02:34;;;;;;;0.00;0.00;;;;;;;7.51;70.12;100963.47;7354040;19;20018;-63
2022/10/13 07:04:59;;;;;;;0.00;0.00;;;;;;;7.51;69.94;100958.28;7359578;19;20126;-63
2022/10/13 07:07:25;;;;;;;0.00;0.00;;;;;;;7.39;69.98;100947.94;7352600;19;20026;-63
2022/10/13 07:09:51;;;;;;;0.10;0.10;;;;;;;7.40;70.09;100954.88;7360028;19;20017;-63
2022/10/13 07:12:16;;;;;;;0.00;0.00;;;;;;;7.58;69.96;100984.22;7361218;19;20015;-63
2022/10/13 07:14:41;;;;;;;0.00;0.00;;;;;;;7.57;70.03;100974.72;7360607;19;20411;-63
2022/10/13 07:17:07;;;;;;;0.00;0.00;;;;;;;7.57;70.21;100978.16;7359543;19;20015;-63
2022/10/13 07:19:32;;;;;;;0.00;0.00;;;;;;;7.57;70.09;100983.38;7362175;19;20026;-63
2022/10/13 07:21:58;;;;;;;0.00;0.00;;;;;;;7.60;70.48;100982.47;7356049;19;20840;-63
2022/10/13 07:24:24;;;;;;;0.00;0.00;;;;;;;7.61;70.45;100979.03;7358269;19;20013;-63
2022/10/13 07:26:49;;;;;;;0.00;0.00;;;;;;;7.61;70.27;100989.41;7368464;19;20030;-63
2022/10/13 07:29:15;;;;;;;0.00;0.00;;;;;;;7.60;70.20;100985.06;7369062;19;20018;-63
2022/10/13 07:31:42;;;;;;;0.00;0.00;;;;;;;7.63;70.26;100980.72;7368154;19;20459;-63
2022/10/13 07:34:08;;;;;;;0.00;0.00;;;;;;;7.56;70.29;100968.66;7367538;19;20010;-62
2022/10/13 07:36:34;;;;;;;0.00;0.00;;;;;;;7.52;70.39;100960.00;7367853;19;20010;-63
2022/10/13 07:39:01;;;;;;;0.08;0.08;;;;;;;7.66;70.46;100972.06;7365651;19;20022;-63
2022/10/13 07:41:28;;;;;;;0.00;0.00;;;;;;;7.67;70.38;100978.97;7368584;19;20668;-63
2022/10/13 07:43:57;;;;;;;0.00;0.00;;;;;;;7.66;70.24;100977.25;7369832;19;20025;-62
2022/10/13 07:46:23;;;;;;;0.00;0.00;;;;;;;7.66;70.56;100972.91;7366828;19;20016;-63
2022/10/13 07:48:48;;;;;;;0.08;0.08;;;;;;;7.67;70.47;100960.78;7368457;19;20014;-63
2022/10/13 07:51:14;;;;;;;0.00;0.00;;;;;;;7.76;70.38;100978.94;7366065;19;20629;-63
2022/10/13 07:53:41;;;;;;;0.00;0.00;;;;;;;7.79;70.81;100984.09;7367457;19;21254;-63
2022/10/13 07:56:09;;;;;;;0.00;0.00;;;;;;;7.82;70.79;100976.28;7363647;19;20017;-63
2022/10/13 07:58:36;;;;;;;0.00;0.00;;;;;;;7.81;70.70;100964.16;7365545;19;20030;-63
2022/10/13 08:01:02;;;;;;;0.00;0.00;;;;;;;7.89;70.67;100962.34;7370084;19;20010;-63
2022/10/13 08:03:28;;;;;;;0.00;0.00;;;;;;;7.94;70.40;100970.97;7366553;19;20018;-63
2022/10/13 08:05:54;;;;;;;0.00;0.00;;;;;;;8.02;70.91;100979.59;7368535;19;20015;-64
2022/10/13 08:08:20;;;;;;;0.00;0.00;;;;;;;8.15;71.00;100974.28;7366753;19;20022;-63
2022/10/13 08:10:46;;;;;;;0.00;0.00;;;;;;;8.31;70.77;100979.34;7369427;19;20014;-63
2022/10/13 08:13:11;;;;;;;0.00;0.00;;;;;;;8.49;70.74;100975.75;7367371;19;20014;-63
2022/10/13 08:15:42;;;;;;;0.00;0.00;;;;;;;8.74;70.28;100967.69;7366413;19;20126;-63
2022/10/13 08:18:09;;;;;;;0.00;0.00;;;;;;;8.93;70.23;100974.41;7367867;19;20754;-61
2022/10/13 08:20:34;;;;;;;0.00;0.00;;;;;;;9.04;70.09;100959.50;7366129;19;20026;-61
2022/10/13 08:23:00;;;;;;;0.00;0.00;;;;;;;9.23;69.32;100969.72;7367886;19;20007;-61
2022/10/13 08:25:26;;;;;;;0.00;0.00;;;;;;;9.55;69.14;100985.78;7366593;19;20346;-61
2022/10/13 08:27:51;;;;;;;0.00;0.00;;;;;;;9.78;69.11;100984.56;7368652;19;20520;-61
2022/10/13 08:30:17;;;;;;;0.00;0.00;;;;;;;10.09;68.92;100993.66;7365893;19;20097;-61
2022/10/13 08:32:43;;;;;;;0.03;0.03;;;;;;;10.34;68.61;100993.25;7366754;19;20014;-60
2022/10/13 08:35:09;;;;;;;0.00;0.00;;;;;;;10.58;68.09;100992.84;7367013;19;20358;-61
2022/10/13 08:37:34;;;;;;;0.00;0.00;;;;;;;10.83;67.74;100987.16;7364423;19;20010;-61
2022/10/13 08:40:00;;;;;;;0.00;0.00;;;;;;;11.07;67.71;100991.06;7367903;19;20384;-61
2022/10/13 08:42:25;;;;;;;0.00;0.00;;;;;;;11.25;67.18;100977.59;7363781;19;20077;-61
2022/10/13 08:44:57;;;;;;;0.00;0.00;;;;;;;11.64;67.09;100985.47;7366648;19;20488;-61
2022/10/13 08:47:26;;;;;;;0.00;0.00;;;;;;;11.90;66.43;100987.53;7366476;19;20036;-61
2022/10/13 08:49:55;;;;;;;0.00;0.00;;;;;;;12.10;65.72;100979.19;7367680;19;20094;-61
2022/10/13 08:52:27;;;;;;;0.00;0.00;;;;;;;12.45;65.82;100976.53;7367026;19;20013;-61
2022/10/13 08:54:55;;;;;;;0.00;0.00;;;;;;;12.69;65.02;100974.19;7365971;19;20002;-61
2022/10/13 08:57:21;;;;;;;0.00;0.00;;;;;;;12.93;64.88;100963.03;7365453;19;20021;-61
2022/10/13 08:59:47;;;;;;;0.00;0.00;;;;;;;13.21;64.36;100963.13;7367397;19;20030;-61
2022/10/13 09:02:21;;;;;;;0.00;0.00;;;;;;;13.53;63.94;100960.44;7367621;19;20022;-61
2022/10/13 09:04:49;;;;;;;0.00;0.00;;;;;;;13.84;63.37;100955.97;7366012;19;20537;-61
2022/10/13 09:07:20;;;;;;;0.00;0.00;;;;;;;14.16;63.63;100962.78;7364812;19;21784;-61
2022/10/13 09:09:51;;;;;;;0.00;0.00;;;;;;;14.46;63.52;100960.00;7366461;19;20011;-61
2022/10/13 09:12:20;;;;;;;0.00;0.00;;;;;;;14.68;62.72;100961.00;7366419;19;20035;-61
2022/10/13 09:14:57;;;;;;;0.00;0.00;;;;;;;15.10;63.39;100957.72;7365998;19;20624;-61
2022/10/13 09:17:27;;;;;;;0.10;0.10;;;;;;;15.31;62.04;100951.66;7365096;19;20072;-61
2022/10/13 09:20:00;;;;;;;0.00;0.00;;;;;;;15.66;62.09;100959.13;7366903;19;20050;-61
2022/10/13 09:22:32;;;;;;;0.10;0.10;;;;;;;15.94;61.38;100950.97;7365837;19;20006;-61
2022/10/13 09:25:16;;;;;;;0.00;0.00;;;;;;;16.26;62.29;100936.44;7365132;19;20007;-61
2022/10/13 09:27:47;;;;;;;0.05;0.05;;;;;;;16.53;61.71;100937.06;7367301;19;20752;-61
2022/10/13 09:30:41;;;;;;;0.00;0.00;;;;;;;16.88;62.21;100934.66;7364652;19;20032;-61
2022/10/13 09:33:07;;;;;;;0.00;0.00;;;;;;;17.04;60.05;100933.06;7265181;19;2004555;-61
2022/10/13 09:35:36;;;;;;;0.00;0.00;;;;;;;17.24;60.08;100933.00;7363970;19;20069;-61
2022/10/13 09:38:15;;;;;;;0.10;0.10;;;;;;;17.44;59.85;100929.41;7366670;19;20003;-61
2022/10/13 09:40:42;;;;;;;0.10;0.10;;;;;;;17.44;59.19;100928.56;7363927;19;20011;-61
2022/10/13 09:43:31;;;;;;;0.00;0.00;;;;;;;17.71;61.59;100932.50;7366373;19;20023;-60
2022/10/13 09:45:58;;;;;;;0.00;0.00;;;;;;;17.60;58.59;100921.63;7364587;19;20064;-61
2022/10/13 09:48:29;;;;;;;0.10;0.10;;;;;;;17.64;59.05;100917.91;7363822;19;20031;-61
2022/10/13 09:50:56;;;;;;;0.03;0.03;;;;;;;17.59;58.96;100911.97;7364657;19;20014;-60
2022/10/13 09:53:30;;;;;;;0.00;0.00;;;;;;;17.67;59.74;100915.09;7364116;19;20013;-61
2022/10/13 09:56:09;;;;;;;0.00;0.00;;;;;;;17.64;59.98;100909.97;7365436;19;20057;-61
2022/10/13 09:58:45;;;;;;;0.08;0.08;;;;;;;17.61;60.29;100910.09;7361313;19;20045;-61
2022/10/13 10:01:21;;;;;;;0.10;0.10;;;;;;;17.55;59.92;100897.22;7364723;19;20007;-61
2022/10/13 10:03:48;;;;;;;0.10;0.10;;;;;;;17.53;59.67;100891.13;7361502;19;20022;-61
2022/10/13 10:06:15;;;;;;;0.00;0.00;;;;;;;17.72;59.49;100889.31;7363574;19;20496;-61
2022/10/13 10:09:08;;;;;;;0.10;0.10;;;;;;;18.10;62.42;100886.56;7364375;19;20006;-61
2022/10/13 10:11:40;;;;;;;0.03;0.03;;;;;;;18.31;60.01;100880.19;7262830;19;2004474;-61
2022/10/13 10:14:20;;;;;;;0.05;0.05;;;;;;;18.67;60.92;100887.13;7366174;19;20018;-61
2022/10/13 10:17:10;;;;;;;0.10;0.10;;;;;;;18.90;59.57;100883.25;7363299;19;20010;-61
2022/10/13 10:19:56;;;;;;;0.00;0.00;;;;;;;19.33;60.05;100876.44;7365035;19;20016;-61
2022/10/13 10:22:55;;;;;;;0.10;0.10;;;;;;;19.63;59.48;100867.72;7363869;19;20025;-61
2022/10/13 10:25:32;;;;;;;0.00;0.00;;;;;;;19.82;56.10;100860.41;7261163;19;2004317;-61
2022/10/13 10:28:21;;;;;;;0.10;0.10;;;;;;;20.15;58.29;100854.88;7363392;19;20417;-61
2022/10/13 10:31:09;;;;;;;0.10;0.10;;;;;;;20.49;59.56;100854.69;7363774;19;20564;-61
2022/10/13 10:34:05;;;;;;;0.10;0.10;;;;;;;20.84;57.97;100852.50;7360738;19;20018;-60
2022/10/13 10:36:59;;;;;;;0.10;0.10;;;;;;;20.92;55.11;100819.19;7263163;19;2004281;-61
2022/10/13 10:39:31;;;;;;;0.08;0.08;;;;;;;21.22;51.59;100847.38;7258642;19;2004189;-61
2022/10/13 10:42:05;;;;;;;0.10;0.10;;;;;;;21.52;54.90;100833.06;7362806;19;20010;-61
2022/10/13 10:44:38;;;;;;;0.05;0.05;;;;;;;21.70;51.16;100831.84;7364410;19;20046;-61
2022/10/13 10:47:27;;;;;;;0.10;0.10;;;;;;;21.95;53.88;100831.03;7359614;19;20418;-61
2022/10/13 10:50:00;;;;;;;0.10;0.10;;;;;;;22.15;51.85;100837.66;7358307;19;20025;-61
2022/10/13 10:52:35;;;;;;;0.10;0.10;;;;;;;22.45;49.86;100834.69;7361285;19;20014;-61
2022/10/13 10:55:22;;;;;;;0.10;0.10;;;;;;;22.75;53.06;100826.34;7357878;19;19999;-61
2022/10/13 10:58:02;;;;;;;0.10;0.10;;;;;;;22.90;49.27;100827.94;7362855;19;20010;-61
2022/10/13 11:00:28;;;;;;;0.10;0.10;;;;;;;22.93;48.34;100819.72;7359781;19;20006;-61
2022/10/13 11:02:53;;;;;;;0.00;0.00;;;;;;;23.17;47.84;100821.56;7354636;19;20047;-61
2022/10/13 11:05:18;;;;;;;0.00;0.00;;;;;;;23.36;48.62;100813.88;7358776;19;20049;-61
2022/10/13 11:07:45;;;;;;;0.10;0.10;;;;;;;23.55;47.76;100816.88;7350605;19;20007;-61
2022/10/13 11:10:15;;;;;;;0.10;0.10;;;;;;;23.86;48.05;100805.75;7355073;19;20014;-62
2022/10/13 11:13:05;;;;;;;0.10;0.10;;;;;;;24.15;48.70;100808.84;7357191;19;20738;-61
2022/10/13 11:15:42;;;;;;;0.10;0.10;;;;;;;24.34;48.89;100801.09;7354757;19;20050;-61
2022/10/13 11:18:45;;;;;;;0.10;0.10;;;;;;;24.62;50.33;100796.25;7350146;19;20014;-61
2022/10/13 11:21:10;;;;;;;0.10;0.10;;;;;;;24.59;45.11;100797.34;7254866;19;2004249;-61
2022/10/13 11:23:44;;;;;;;0.10;0.10;;;;;;;24.84;46.60;100812.25;7356736;19;20017;-61
2022/10/13 11:26:39;;;;;;;0.10;0.10;;;;;;;25.12;49.07;100796.66;7354347;19;20030;-61
2022/10/13 11:29:15;;;;;;;0.10;0.10;;;;;;;25.31;46.86;100786.16;7257293;19;2004568;-61
2022/10/13 11:31:50;;;;;;;0.10;0.10;;;;;;;25.43;45.36;100787.78;7356084;19;20029;-61
2022/10/13 11:34:28;;;;;;;0.10;0.10;;;;;;;25.56;45.79;100777.78;7357591;19;20021;-61
2022/10/13 11:36:56;;;;;;;0.10;0.10;;;;;;;25.48;43.73;100771.38;7359886;19;20432;-61
2022/10/13 11:39:26;;;;;;;0.10;0.10;;;;;;;25.57;43.10;100771.44;7356913;19;20010;-61